Huntingdon, Pennsylvania
Current Conditions -  °F | °C
As of 12:49 PM on Monday 22 Dec 2014 (Local Time) from KAOO Reporting Station
Overcast Overcast  
Wind Chill: 23°   Ceiling: 2500
Heat Index: 30°   Visibility: 8mi
Dew Point: 25°   Wind: 8mph
Humidity: 80%   Direction: 130°SE
Pressure: 30.15"   Gusts: NA
Location:  40.48°N, 78.01°W
Report Text: KAOO 221749Z AUTO 13007KT 8SM SCT017 BKN025 OVC085 M01/M04 A3015 RMK AO2
Loading
Personal Weather Stations






























Interactive Weather Map New forecast layout! Learn more

10-Day Weather Forecast

Advertisements
Track Severe Weather on mobile